createdAt,value
2019-04-25T00:00:06.000Z,77.55
2019-04-25T00:01:05.964Z,77.55
2019-04-25T00:02:05.935Z,76.98
2019-04-25T00:03:05.896Z,77.55
2019-04-25T00:04:05.866Z,77.36
2019-04-25T00:05:05.829Z,77.36
2019-04-25T00:06:05.811Z,77.26
2019-04-25T00:07:05.760Z,77.07
2019-04-25T00:08:05.725Z,77.26
2019-04-25T00:09:05.713Z,77.55
2019-04-25T00:10:05.658Z,77.64
2019-04-25T00:11:05.624Z,78.12
2019-04-25T00:12:05.589Z,78.31
2019-04-25T00:13:05.559Z,78.12
2019-04-25T00:14:05.539Z,77.74
2019-04-25T00:15:05.494Z,77.55
2019-04-25T00:16:05.456Z,78.12
2019-04-25T00:17:05.424Z,78.03
2019-04-25T00:18:05.390Z,78.12
2019-04-25T00:19:05.359Z,77.36
2019-04-25T00:20:05.320Z,77.36
2019-04-25T00:21:05.290Z,77.36
2019-04-25T00:22:05.263Z,77.45
2019-04-25T00:23:05.229Z,78.31
2019-04-25T00:24:05.194Z,78.22
2019-04-25T00:25:15.020Z,77.55
2019-04-25T00:26:05.124Z,77.64
2019-04-25T00:27:05.095Z,77.26
2019-04-25T00:28:05.047Z,77.17
2019-04-25T00:29:05.024Z,77.64
2019-04-25T00:30:04.987Z,77.70
2019-04-25T00:31:04.950Z,77.83
2019-04-25T00:32:04.920Z,77.64
2019-04-25T00:33:04.885Z,77.83
2019-04-25T00:34:04.855Z,78.12
2019-04-25T00:35:04.817Z,78.31
2019-04-25T00:36:04.786Z,77.64
2019-04-25T00:37:04.751Z,78.03
2019-04-25T00:38:04.717Z,78.31
2019-04-25T00:39:04.683Z,77.64
2019-04-25T00:40:04.652Z,77.26
2019-04-25T00:41:04.618Z,77.45
2019-04-25T00:42:04.577Z,77.13
2019-04-25T00:43:04.548Z,77.55
2019-04-25T00:44:04.518Z,77.26
2019-04-25T00:45:04.481Z,77.51
2019-04-25T00:46:04.456Z,77.22
2019-04-25T00:47:04.411Z,77.32
2019-04-25T00:48:04.483Z,77.45
2019-04-25T00:49:04.362Z,77.42
2019-04-25T00:50:04.314Z,77.45
2019-04-25T00:51:04.282Z,76.88
2019-04-25T00:52:04.253Z,76.94
2019-04-25T00:53:04.218Z,76.94
2019-04-25T00:54:04.178Z,77.13
2019-04-25T00:55:04.143Z,77.22
2019-04-25T00:56:04.109Z,76.84
2019-04-25T00:57:04.077Z,77.55
2019-04-25T00:58:04.033Z,77.42
2019-04-25T00:59:04.017Z,77.22
2019-04-25T01:00:03.998Z,77.13
2019-04-25T01:01:03.940Z,77.03
2019-04-25T01:02:03.918Z,77.03
2019-04-25T01:03:03.877Z,76.75
2019-04-25T01:04:03.833Z,76.50
2019-04-25T01:05:03.807Z,76.75
2019-04-25T01:06:03.926Z,77.45
2019-04-25T01:07:03.741Z,77.07
2019-04-25T01:08:03.712Z,76.56
2019-04-25T01:09:03.678Z,76.59
2019-04-25T01:10:03.645Z,77.03
2019-04-25T01:11:03.611Z,76.94
2019-04-25T01:12:04.061Z,77.13
2019-04-25T01:13:03.534Z,76.84
2019-04-25T01:14:03.505Z,76.65
2019-04-25T01:15:03.472Z,76.65
2019-04-25T01:16:04.072Z,75.89
2019-04-25T01:17:03.404Z,75.70
2019-04-25T01:18:03.363Z,75.89
2019-04-25T01:19:03.570Z,76.18
2019-04-25T01:20:04.187Z,76.18
2019-04-25T01:21:04.477Z,76.46
2019-04-25T01:22:03.842Z,75.70
2019-04-25T01:23:03.799Z,76.37
2019-04-25T01:24:04.281Z,75.89
2019-04-25T01:25:03.840Z,76.18
2019-04-25T01:26:03.354Z,75.99
2019-04-25T01:27:03.344Z,75.89
2019-04-25T01:28:03.266Z,76.37
2019-04-25T01:29:03.675Z,75.79
2019-04-25T01:30:03.990Z,75.60
2019-04-25T01:31:03.847Z,75.51
2019-04-25T01:32:03.262Z,75.60
2019-04-25T01:33:03.506Z,76.08
2019-04-25T01:34:04.346Z,75.89
2019-04-25T01:35:04.002Z,75.89
2019-04-25T01:36:03.442Z,75.89
2019-04-25T01:37:04.166Z,76.08
2019-04-25T01:38:03.671Z,76.08
2019-04-25T01:39:04.220Z,75.51
2019-04-25T01:40:04.138Z,75.32
2019-04-25T01:41:03.348Z,75.23
2019-04-25T01:42:03.584Z,75.51
2019-04-25T01:43:03.726Z,74.94
2019-04-25T01:44:04.415Z,74.94
2019-04-25T01:45:03.967Z,75.23
2019-04-25T01:46:03.399Z,74.46
2019-04-25T01:47:04.094Z,75.60
2019-04-25T01:48:03.496Z,75.32
2019-04-25T01:49:02.317Z,75.23
2019-04-25T01:50:03.832Z,75.32
2019-04-25T01:51:04.006Z,75.23
2019-04-25T01:52:03.520Z,75.42
2019-04-25T01:53:03.423Z,75.23
2019-04-25T01:54:03.985Z,75.99
2019-04-25T01:55:03.491Z,75.51
2019-04-25T01:56:05.899Z,75.60
2019-04-25T01:57:02.051Z,75.51
2019-04-25T01:58:03.751Z,75.32
2019-04-25T01:59:03.766Z,75.42
2019-04-25T02:00:03.821Z,75.42
2019-04-25T02:01:02.657Z,75.32
2019-04-25T02:02:03.795Z,76.37
2019-04-25T02:03:03.682Z,75.60
2019-04-25T02:04:03.258Z,75.42
2019-04-25T02:05:01.770Z,75.89
2019-04-25T02:06:01.735Z,76.08
2019-04-25T02:07:03.340Z,76.08
2019-04-25T02:08:01.667Z,75.42
2019-04-25T02:09:01.648Z,75.51
2019-04-25T02:10:02.135Z,75.42
2019-04-25T02:11:01.581Z,75.70
2019-04-25T02:12:01.532Z,75.70
2019-04-25T02:13:02.474Z,76.08
2019-04-25T02:14:01.467Z,76.37
2019-04-25T02:15:03.921Z,76.18
2019-04-25T02:16:01.398Z,75.99
2019-04-25T02:17:02.314Z,75.89
2019-04-25T02:18:01.853Z,75.99
2019-04-25T02:19:02.410Z,75.99
2019-04-25T02:20:02.039Z,76.18
2019-04-25T02:21:02.318Z,75.89
2019-04-25T02:22:01.958Z,76.37
2019-04-25T02:23:02.053Z,75.70
2019-04-25T02:24:01.128Z,75.89
2019-04-25T02:25:01.096Z,76.18
2019-04-25T02:26:13.895Z,75.51
2019-04-25T02:27:01.022Z,76.08
2019-04-25T02:28:02.475Z,76.08
2019-04-25T02:29:00.955Z,75.99
2019-04-25T02:30:01.085Z,76.37
2019-04-25T02:31:03.797Z,75.51
2019-04-25T02:32:03.239Z,76.37
2019-04-25T02:33:06.118Z,76.46
2019-04-25T02:34:03.093Z,75.51
2019-04-25T02:35:04.476Z,76.37
2019-04-25T02:36:02.612Z,76.08
2019-04-25T02:37:02.983Z,76.08
2019-04-25T02:38:02.897Z,76.27
2019-04-25T02:39:03.279Z,75.99
2019-04-25T02:40:02.406Z,76.08
2019-04-25T02:41:02.304Z,76.08
2019-04-25T02:42:01.954Z,76.18
2019-04-25T02:43:02.000Z,76.37
2019-04-25T02:44:05.506Z,75.89
2019-04-25T02:45:02.358Z,75.99
2019-04-25T02:46:01.570Z,76.37
2019-04-25T02:47:01.068Z,75.70
2019-04-25T02:48:01.425Z,75.51
2019-04-25T02:49:02.644Z,75.89
2019-04-25T02:50:00.830Z,75.60
2019-04-25T02:51:01.167Z,75.60
2019-04-25T02:52:01.207Z,76.23
2019-04-25T02:53:01.281Z,75.51
2019-04-25T02:54:00.108Z,75.70
2019-04-25T02:55:00.763Z,75.60
2019-04-25T02:56:00.043Z,75.51
2019-04-25T02:57:00.067Z,75.99
2019-04-25T02:58:00.387Z,75.95
2019-04-25T02:59:00.315Z,75.85
2019-04-25T03:00:00.193Z,75.51
2019-04-25T03:01:10.735Z,75.70
2019-04-25T03:02:00.720Z,75.57
2019-04-25T03:03:01.021Z,75.79
2019-04-25T03:04:00.843Z,75.89
2019-04-25T03:05:01.113Z,76.14
2019-04-25T03:06:01.278Z,75.85
2019-04-25T03:07:00.626Z,76.84
2019-04-25T03:08:00.342Z,76.46
2019-04-25T03:09:00.313Z,76.90
2019-04-25T03:09:59.624Z,76.04
2019-04-25T03:10:59.852Z,75.60
2019-04-25T03:11:59.955Z,76.94
2019-04-25T03:13:00.277Z,76.56
2019-04-25T03:14:00.543Z,76.52
2019-04-25T03:15:00.150Z,77.00
2019-04-25T03:16:00.595Z,76.65
2019-04-25T03:17:00.401Z,76.27
2019-04-25T03:18:00.184Z,76.52
2019-04-25T03:19:00.291Z,76.75
2019-04-25T03:19:59.875Z,76.46
2019-04-25T03:21:00.925Z,77.09
2019-04-25T03:22:00.173Z,77.19
2019-04-25T03:23:00.057Z,76.90
2019-04-25T03:23:59.935Z,76.52
2019-04-25T03:25:00.273Z,76.84
2019-04-25T03:25:59.224Z,76.90
2019-04-25T03:26:59.411Z,76.65
2019-04-25T03:27:59.596Z,76.04
2019-04-25T03:28:59.663Z,76.14
2019-04-25T03:29:59.711Z,75.95
2019-04-25T03:31:01.419Z,76.46
2019-04-25T03:31:58.811Z,76.33
2019-04-25T03:32:58.780Z,75.79
2019-04-25T03:33:58.747Z,75.47
2019-04-25T03:34:58.699Z,75.95
2019-04-25T03:35:58.680Z,76.18
2019-04-25T03:36:58.635Z,76.14
2019-04-25T03:37:58.600Z,75.57
2019-04-25T03:38:58.567Z,75.85
2019-04-25T03:39:58.548Z,75.95
2019-04-25T03:40:58.504Z,76.04
2019-04-25T03:41:58.458Z,76.33
2019-04-25T03:42:58.428Z,75.85
2019-04-25T03:43:58.396Z,76.33
2019-04-25T03:44:58.366Z,76.23
2019-04-25T03:45:58.326Z,75.99
2019-04-25T03:46:58.291Z,76.27
2019-04-25T03:47:58.252Z,76.27
2019-04-25T03:48:58.223Z,76.61
2019-04-25T03:49:58.196Z,76.14
2019-04-25T03:50:58.158Z,76.23
2019-04-25T03:51:58.117Z,76.14
2019-04-25T03:52:58.096Z,76.08
2019-04-25T03:53:58.051Z,76.14
2019-04-25T03:54:58.021Z,75.47
2019-04-25T03:55:57.981Z,76.18
2019-04-25T03:56:57.959Z,76.14
2019-04-25T03:57:57.907Z,76.33
2019-04-25T03:58:57.878Z,75.89
2019-04-25T03:59:57.853Z,75.57
2019-04-25T04:00:57.823Z,75.95
2019-04-25T04:01:57.774Z,76.04
2019-04-25T04:02:57.761Z,76.04
2019-04-25T04:03:57.704Z,76.23
2019-04-25T04:04:57.670Z,75.70
2019-04-25T04:05:57.636Z,76.61
2019-04-25T04:06:57.604Z,76.52
2019-04-25T04:07:57.564Z,76.81
2019-04-25T04:08:57.547Z,76.81
2019-04-25T04:09:57.504Z,76.37
2019-04-25T04:10:57.467Z,76.52
2019-04-25T04:11:57.439Z,76.90
2019-04-25T04:12:57.402Z,76.52
2019-04-25T04:13:57.372Z,76.56
2019-04-25T04:14:57.332Z,76.75
2019-04-25T04:15:57.299Z,76.42
2019-04-25T04:16:57.267Z,75.67
2019-04-25T04:17:57.257Z,76.61
2019-04-25T04:18:57.203Z,76.90
2019-04-25T04:19:57.170Z,76.61
2019-04-25T04:20:57.124Z,76.71
2019-04-25T04:21:57.090Z,76.61
2019-04-25T04:22:57.058Z,75.76
2019-04-25T04:23:57.230Z,76.81
2019-04-25T04:24:56.998Z,75.95
2019-04-25T04:25:56.950Z,76.14
2019-04-25T04:27:03.721Z,76.33
2019-04-25T04:27:56.888Z,76.90
2019-04-25T04:28:56.855Z,76.61
2019-04-25T04:29:56.825Z,76.18
2019-04-25T04:30:56.789Z,76.18
2019-04-25T04:31:56.753Z,76.71
2019-04-25T04:32:56.710Z,76.81
2019-04-25T04:33:56.680Z,76.65
2019-04-25T04:34:56.648Z,76.71
2019-04-25T04:35:56.615Z,76.52
2019-04-25T04:36:56.573Z,77.09
2019-04-25T04:37:56.552Z,76.84
2019-04-25T04:38:56.519Z,76.08
2019-04-25T04:39:56.479Z,76.65
2019-04-25T04:40:56.442Z,76.75
2019-04-25T04:41:56.404Z,76.84
2019-04-25T04:42:56.374Z,76.27
2019-04-25T04:43:56.339Z,76.75
2019-04-25T04:44:56.305Z,77.42
2019-04-25T04:45:56.276Z,77.61
2019-04-25T04:46:56.240Z,77.03
2019-04-25T04:47:56.205Z,76.56
2019-04-25T04:48:56.165Z,77.22
2019-04-25T04:49:56.144Z,76.56
2019-04-25T04:50:56.110Z,76.65
2019-04-25T04:51:56.061Z,75.70
2019-04-25T04:52:56.034Z,76.08
2019-04-25T04:53:55.999Z,76.75
2019-04-25T04:55:05.385Z,77.51
2019-04-25T04:55:55.931Z,77.13
2019-04-25T04:56:55.905Z,77.32
2019-04-25T04:57:55.863Z,77.03
2019-04-25T04:58:55.822Z,76.84
2019-04-25T04:59:55.786Z,76.18
2019-04-25T05:00:55.755Z,76.08
2019-04-25T05:01:55.728Z,75.99
2019-04-25T05:02:55.682Z,76.18
2019-04-25T05:03:55.656Z,75.89
2019-04-25T05:04:55.625Z,76.18
2019-04-25T05:05:55.590Z,78.08
2019-04-25T05:06:55.552Z,77.61
2019-04-25T05:07:55.518Z,77.22
2019-04-25T05:08:55.511Z,77.13
2019-04-25T05:09:55.462Z,76.94
2019-04-25T05:10:57.333Z,78.27
2019-04-25T05:11:55.388Z,77.51
2019-04-25T05:12:55.343Z,78.08
2019-04-25T05:13:55.317Z,77.70
2019-04-25T05:14:55.277Z,77.89
2019-04-25T05:15:55.257Z,77.98
2019-04-25T05:16:55.218Z,76.59
2019-04-25T05:17:55.197Z,76.84
2019-04-25T05:18:55.420Z,76.98
2019-04-25T05:19:55.128Z,77.36
2019-04-25T05:20:55.081Z,77.36
2019-04-25T05:21:55.044Z,76.98
2019-04-25T05:22:55.257Z,77.07
2019-04-25T05:23:54.973Z,76.98
2019-04-25T05:24:54.947Z,77.26
2019-04-25T05:25:55.766Z,78.22
2019-04-25T05:26:54.874Z,77.26
2019-04-25T05:28:02.936Z,77.83
2019-04-25T05:28:54.996Z,77.45
2019-04-25T05:29:54.780Z,77.55
2019-04-25T05:30:54.739Z,78.31
2019-04-25T05:31:54.708Z,78.31
2019-04-25T05:32:54.668Z,77.36
2019-04-25T05:33:54.643Z,78.69
2019-04-25T05:34:54.612Z,80.16
2019-04-25T05:35:54.578Z,78.98
2019-04-25T05:36:54.542Z,79.27
2019-04-25T05:37:54.512Z,79.40
2019-04-25T05:38:54.475Z,79.59
2019-04-25T05:39:54.433Z,79.59
2019-04-25T05:40:54.407Z,78.64
2019-04-25T05:41:54.379Z,80.92
2019-04-25T05:42:54.352Z,79.78
2019-04-25T05:43:54.307Z,79.21
2019-04-25T05:44:54.267Z,79.49
2019-04-25T05:45:54.243Z,79.21
2019-04-25T05:46:54.202Z,78.35
2019-04-25T05:47:54.181Z,79.68
2019-04-25T05:48:54.127Z,79.21
2019-04-25T05:49:54.204Z,78.44
2019-04-25T05:50:54.070Z,78.44
2019-04-25T05:51:54.028Z,78.83
2019-04-25T05:52:54.845Z,80.01
2019-04-25T05:53:55.181Z,78.77
2019-04-25T05:54:54.097Z,79.91
2019-04-25T05:55:54.135Z,78.49
2019-04-25T05:56:53.870Z,78.86
2019-04-25T05:57:53.844Z,78.49
2019-04-25T05:58:53.801Z,79.35
2019-04-25T05:59:53.803Z,78.20
2019-04-25T06:00:54.252Z,78.30
2019-04-25T06:01:53.847Z,79.15
2019-04-25T06:02:53.668Z,78.77
2019-04-25T06:03:53.693Z,78.39
2019-04-25T06:04:53.640Z,78.77
2019-04-25T06:05:53.565Z,79.15
2019-04-25T06:06:55.241Z,78.58
2019-04-25T06:07:54.282Z,79.35
2019-04-25T06:08:54.181Z,78.86
2019-04-25T06:09:54.414Z,79.15
2019-04-25T06:10:53.858Z,78.67
2019-04-25T06:11:53.463Z,79.53
2019-04-25T06:12:53.692Z,78.58
2019-04-25T06:13:53.340Z,78.58
2019-04-25T06:14:54.589Z,80.20
2019-04-25T06:15:53.393Z,78.86
2019-04-25T06:16:53.612Z,80.01
2019-04-25T06:17:53.352Z,79.44
2019-04-25T06:18:54.803Z,80.11
2019-04-25T06:19:53.444Z,81.54
2019-04-25T06:20:54.316Z,78.96
2019-04-25T06:21:53.518Z,81.67
2019-04-25T06:22:53.453Z,79.44
2019-04-25T06:23:54.427Z,80.20
2019-04-25T06:24:54.227Z,80.91
2019-04-25T06:25:53.810Z,79.67
2019-04-25T06:26:53.878Z,80.53
2019-04-25T06:27:58.611Z,80.72
2019-04-25T06:28:58.995Z,79.57
2019-04-25T06:29:59.063Z,79.48
2019-04-25T06:30:54.116Z,79.67
2019-04-25T06:32:04.257Z,79.28
2019-04-25T06:32:53.221Z,80.81
2019-04-25T06:33:53.942Z,79.38
2019-04-25T06:34:54.151Z,79.77
2019-04-25T06:35:52.577Z,79.67
2019-04-25T06:36:53.650Z,80.33
2019-04-25T06:37:53.675Z,79.48
2019-04-25T06:38:54.085Z,80.24
2019-04-25T06:39:53.682Z,80.15
2019-04-25T06:40:53.566Z,80.33
2019-04-25T06:41:53.769Z,79.67
2019-04-25T06:42:53.598Z,79.52
2019-04-25T06:43:52.321Z,81.62
2019-04-25T06:44:53.478Z,80.19
2019-04-25T06:45:55.205Z,80.28
2019-04-25T06:46:53.532Z,80.57
2019-04-25T06:47:52.186Z,79.52
2019-04-25T06:48:53.429Z,80.85
2019-04-25T06:49:53.245Z,81.81
2019-04-25T06:50:53.628Z,80.19
2019-04-25T06:51:52.069Z,80.85
2019-04-25T06:52:53.636Z,79.71
2019-04-25T06:53:53.422Z,79.90
2019-04-25T06:54:53.276Z,78.99
2019-04-25T06:55:53.559Z,80.95
2019-04-25T06:56:53.431Z,80.38
2019-04-25T06:57:51.873Z,79.99
2019-04-25T06:58:53.281Z,79.75
2019-04-25T06:59:53.232Z,79.85
2019-04-25T07:00:58.782Z,80.80
2019-04-25T07:01:51.732Z,80.04
2019-04-25T07:02:53.151Z,80.04
2019-04-25T07:03:51.668Z,80.70
2019-04-25T07:04:51.730Z,80.51
2019-04-25T07:05:51.603Z,79.75
2019-04-25T07:06:51.577Z,80.04
2019-04-25T07:07:53.378Z,79.65
2019-04-25T07:08:51.508Z,80.13
2019-04-25T07:09:53.271Z,80.04
2019-04-25T07:10:51.449Z,79.27
2019-04-25T07:11:51.399Z,80.32
2019-04-25T07:12:51.379Z,80.07
2019-04-25T07:13:51.346Z,79.08
2019-04-25T07:14:51.313Z,79.41
2019-04-25T07:15:51.286Z,79.85
2019-04-25T07:16:51.254Z,79.65
2019-04-25T07:17:51.219Z,80.32
2019-04-25T07:18:51.213Z,80.07
2019-04-25T07:19:51.154Z,79.88
2019-04-25T07:20:51.120Z,79.79
2019-04-25T07:21:51.092Z,79.85
2019-04-25T07:22:51.063Z,80.13
2019-04-25T07:23:51.029Z,79.65
2019-04-25T07:24:50.993Z,79.98
2019-04-25T07:25:50.965Z,79.50
2019-04-25T07:26:50.936Z,79.41
2019-04-25T07:27:50.904Z,79.69
2019-04-25T07:28:50.865Z,79.60
2019-04-25T07:29:50.834Z,78.36
2019-04-25T07:30:52.667Z,79.69
2019-04-25T07:31:50.776Z,79.22
2019-04-25T07:32:50.745Z,79.50
2019-04-25T07:33:50.736Z,79.79
2019-04-25T07:34:50.685Z,79.31
2019-04-25T07:35:50.646Z,79.69
2019-04-25T07:36:50.612Z,80.07
2019-04-25T07:37:50.582Z,79.50
2019-04-25T07:38:50.549Z,79.98
2019-04-25T07:39:50.521Z,79.41
2019-04-25T07:40:50.482Z,79.12
2019-04-25T07:41:50.451Z,79.50
2019-04-25T07:42:50.430Z,79.79
2019-04-25T07:43:50.389Z,78.93
2019-04-25T07:44:52.972Z,78.64
2019-04-25T07:45:50.371Z,78.55
2019-04-25T07:46:50.301Z,78.64
2019-04-25T07:47:50.333Z,79.02
2019-04-25T07:48:50.230Z,79.22
2019-04-25T07:49:50.198Z,79.12
2019-04-25T07:50:50.172Z,78.93
2019-04-25T07:51:50.145Z,79.64
2019-04-25T07:52:50.123Z,78.68
2019-04-25T07:53:50.077Z,79.64
2019-04-25T07:54:50.047Z,79.16
2019-04-25T07:55:50.007Z,78.58
2019-04-25T07:56:49.987Z,78.30
2019-04-25T07:57:49.951Z,78.30
2019-04-25T07:58:52.589Z,78.20
2019-04-25T07:59:51.635Z,78.68
2019-04-25T08:00:49.861Z,78.97
2019-04-25T08:01:49.831Z,78.20
2019-04-25T08:02:49.788Z,78.01
2019-04-25T08:03:49.768Z,78.01
2019-04-25T08:04:49.728Z,78.11
2019-04-25T08:05:49.700Z,77.82
2019-04-25T08:06:49.665Z,78.87
2019-04-25T08:07:49.637Z,79.44
2019-04-25T08:08:49.603Z,78.01
2019-04-25T08:09:49.575Z,78.20
2019-04-25T08:10:49.539Z,78.78
2019-04-25T08:11:49.527Z,77.53
2019-04-25T08:12:49.477Z,78.11
2019-04-25T08:13:49.442Z,78.20
2019-04-25T08:14:49.413Z,78.72
2019-04-25T08:15:49.387Z,78.24
2019-04-25T08:16:49.349Z,78.91
2019-04-25T08:17:49.318Z,78.05
2019-04-25T08:18:49.319Z,78.81
2019-04-25T08:19:49.261Z,78.24
2019-04-25T08:20:49.226Z,79.00
2019-04-25T08:21:49.199Z,78.05
2019-04-25T08:22:56.580Z,79.20
2019-04-25T08:23:49.143Z,77.38
2019-04-25T08:24:49.101Z,78.34
2019-04-25T08:25:49.083Z,79.10
2019-04-25T08:26:49.047Z,78.72
2019-04-25T08:27:49.014Z,77.67
2019-04-25T08:28:55.123Z,77.38
2019-04-25T08:29:48.944Z,77.70
2019-04-25T08:30:48.934Z,77.33
2019-04-25T08:31:48.893Z,77.70
2019-04-25T08:32:48.862Z,78.57
2019-04-25T08:33:48.829Z,78.86
2019-04-25T08:34:48.794Z,77.70
2019-04-25T08:36:03.535Z,77.42
2019-04-25T08:36:48.734Z,77.33
2019-04-25T08:37:48.703Z,78.38
2019-04-25T08:38:48.674Z,76.84
2019-04-25T08:39:48.638Z,77.80
2019-04-25T08:40:48.632Z,77.46
2019-04-25T08:41:48.583Z,77.75
2019-04-25T08:42:48.543Z,77.84
2019-04-25T08:43:48.515Z,78.22
2019-04-25T08:44:48.494Z,77.46
2019-04-25T08:45:48.455Z,76.89
2019-04-25T08:46:48.887Z,76.89
2019-04-25T08:47:48.398Z,77.36
2019-04-25T08:48:48.365Z,78.03
2019-04-25T08:49:49.529Z,76.98
2019-04-25T08:50:48.305Z,77.55
2019-04-25T08:51:48.274Z,77.94
2019-04-25T08:52:48.270Z,76.69
2019-04-25T08:53:48.215Z,76.82
2019-04-25T08:54:48.197Z,77.21
2019-04-25T08:55:48.149Z,76.92
2019-04-25T08:56:48.123Z,77.11
2019-04-25T08:57:48.096Z,76.82
2019-04-25T08:58:48.079Z,76.92
2019-04-25T08:59:52.318Z,77.50
2019-04-25T09:00:58.237Z,77.78
2019-04-25T09:01:47.970Z,76.73
2019-04-25T09:02:47.940Z,76.82
2019-04-25T09:03:47.912Z,76.82
2019-04-25T09:04:47.885Z,77.31
2019-04-25T09:05:47.916Z,77.69
2019-04-25T09:06:47.824Z,76.73
2019-04-25T09:07:47.793Z,77.02
2019-04-25T09:08:47.771Z,77.59
2019-04-25T09:09:47.739Z,76.73
2019-04-25T09:10:47.706Z,76.54
2019-04-25T09:11:47.675Z,76.73
2019-04-25T09:12:47.636Z,77.59
2019-04-25T09:13:47.611Z,76.15
2019-04-25T09:14:47.599Z,77.44
2019-04-25T09:15:47.566Z,78.40
2019-04-25T09:16:47.526Z,79.07
2019-04-25T09:17:47.497Z,76.57
2019-04-25T09:18:47.457Z,77.06
2019-04-25T09:19:47.428Z,76.77
2019-04-25T09:20:47.445Z,76.90
2019-04-25T09:21:49.529Z,77.58
2019-04-25T09:22:47.360Z,78.05
2019-04-25T09:23:47.312Z,75.85
2019-04-25T09:24:47.282Z,77.58
2019-04-25T09:25:47.256Z,76.42
2019-04-25T09:26:47.222Z,77.95
2019-04-25T09:27:47.211Z,77.29
2019-04-25T09:28:47.176Z,76.37
2019-04-25T09:29:47.485Z,78.09
2019-04-25T09:30:47.151Z,77.90
2019-04-25T09:31:47.080Z,77.61
2019-04-25T09:32:47.850Z,77.51
2019-04-25T09:33:47.021Z,77.33
2019-04-25T09:34:46.991Z,77.23
2019-04-25T09:35:46.970Z,77.42
2019-04-25T09:36:46.933Z,76.84
2019-04-25T09:37:46.898Z,78.38
2019-04-25T09:38:48.458Z,76.75
2019-04-25T09:39:46.846Z,77.33
2019-04-25T09:40:46.823Z,76.27
2019-04-25T09:41:46.788Z,77.61
2019-04-25T09:42:46.760Z,77.23
2019-04-25T09:43:46.910Z,76.56
2019-04-25T09:44:46.712Z,76.65
2019-04-25T09:45:46.671Z,76.75
2019-04-25T09:46:47.740Z,77.42
2019-04-25T09:47:46.608Z,77.42
2019-04-25T09:48:46.824Z,78.19
2019-04-25T09:49:46.562Z,77.13
2019-04-25T09:50:46.528Z,77.04
2019-04-25T09:51:47.010Z,77.80
2019-04-25T09:52:47.035Z,77.80
2019-04-25T09:53:50.940Z,77.75
2019-04-25T09:54:46.419Z,77.84
2019-04-25T09:55:47.229Z,78.52
2019-04-25T09:56:47.185Z,77.71
2019-04-25T09:57:46.318Z,76.98
2019-04-25T09:58:48.569Z,77.84
2019-04-25T09:59:46.281Z,78.42
2019-04-25T10:00:46.227Z,78.13
2019-04-25T10:01:46.216Z,77.26
2019-04-25T10:02:46.980Z,76.21
2019-04-25T10:03:46.150Z,74.77
2019-04-25T10:04:46.378Z,75.06
2019-04-25T10:05:46.862Z,76.79
2019-04-25T10:06:46.117Z,76.40
2019-04-25T10:07:47.675Z,77.36
2019-04-25T10:08:46.327Z,77.36
2019-04-25T10:09:46.234Z,76.98
2019-04-25T10:10:46.707Z,77.26
2019-04-25T10:11:46.563Z,77.11
2019-04-25T10:12:45.885Z,77.84
2019-04-25T10:13:46.549Z,78.70
2019-04-25T10:14:47.918Z,77.69
2019-04-25T10:15:45.798Z,77.31
2019-04-25T10:16:45.778Z,77.69
2019-04-25T10:17:46.253Z,77.11
2019-04-25T10:18:45.917Z,77.11
2019-04-25T10:19:45.684Z,76.82
2019-04-25T10:20:46.309Z,76.92
2019-04-25T10:21:45.626Z,77.01
2019-04-25T10:22:46.550Z,76.73
2019-04-25T10:23:46.733Z,77.21
2019-04-25T10:24:58.428Z,77.21
2019-04-25T10:25:46.479Z,77.21
2019-04-25T10:26:46.360Z,77.50
2019-04-25T10:27:48.857Z,77.88
2019-04-25T10:28:45.432Z,77.78
2019-04-25T10:29:51.618Z,77.40
2019-04-25T10:30:45.379Z,77.78
2019-04-25T10:31:45.344Z,77.69
2019-04-25T10:32:46.230Z,78.08
2019-04-25T10:33:45.815Z,76.82
2019-04-25T10:34:46.177Z,75.38
2019-04-25T10:35:52.077Z,74.52
2019-04-25T10:36:45.456Z,76.15
2019-04-25T10:37:46.224Z,77.11
2019-04-25T10:39:00.510Z,75.57
2019-04-25T10:39:45.997Z,75.00
2019-04-25T10:40:46.134Z,75.48
2019-04-25T10:41:46.692Z,76.06
2019-04-25T10:42:48.097Z,75.48
2019-04-25T10:43:45.956Z,76.92
2019-04-25T10:44:47.002Z,76.86
2019-04-25T10:45:46.345Z,76.73
2019-04-25T10:46:46.850Z,77.15
2019-04-25T10:47:45.255Z,77.34
2019-04-25T10:48:45.946Z,76.86
2019-04-25T10:49:45.870Z,76.96
2019-04-25T10:50:45.939Z,77.73
2019-04-25T10:51:45.798Z,77.83
2019-04-25T10:52:46.181Z,77.63
2019-04-25T10:53:45.966Z,77.34
2019-04-25T10:54:45.774Z,77.44
2019-04-25T10:55:45.497Z,78.50
2019-04-25T10:56:46.088Z,78.11
2019-04-25T10:57:45.494Z,78.11
2019-04-25T10:58:46.376Z,78.02
2019-04-25T10:59:55.237Z,76.19
2019-04-25T11:00:46.256Z,70.90
2019-04-25T11:01:46.026Z,70.72
2019-04-25T11:02:45.483Z,68.12
2019-04-25T11:03:45.479Z,67.45
2019-04-25T11:04:47.178Z,68.31
2019-04-25T11:05:45.165Z,68.70
2019-04-25T11:06:45.531Z,66.87
2019-04-25T11:07:44.533Z,67.25
2019-04-25T11:08:44.928Z,68.06
2019-04-25T11:09:45.554Z,68.92
2019-04-25T11:10:46.989Z,68.06
2019-04-25T11:11:44.206Z,67.90
2019-04-25T11:12:44.553Z,66.94
2019-04-25T11:13:45.203Z,69.15
2019-04-25T11:14:44.360Z,67.32
2019-04-25T11:15:44.897Z,69.09
2019-04-25T11:16:45.533Z,68.03
2019-04-25T11:17:45.798Z,67.71
2019-04-25T11:18:45.045Z,69.18
2019-04-25T11:19:44.499Z,69.85
2019-04-25T11:20:44.623Z,67.97
2019-04-25T11:21:45.321Z,67.29
2019-04-25T11:22:44.844Z,64.34
2019-04-25T11:23:44.991Z,63.09
2019-04-25T11:24:43.868Z,61.74
2019-04-25T11:25:45.248Z,60.39
2019-04-25T11:26:47.191Z,58.49
2019-04-25T11:27:46.681Z,58.59
2019-04-25T11:28:45.287Z,57.14
2019-04-25T11:29:45.045Z,57.56
2019-04-25T11:30:45.344Z,57.87
2019-04-25T11:31:44.879Z,58.07
2019-04-25T11:32:45.099Z,57.71
2019-04-25T11:33:43.985Z,54.33
2019-04-25T11:34:46.101Z,54.53
2019-04-25T11:35:46.468Z,53.66
2019-04-25T11:36:44.003Z,52.98
2019-04-25T11:37:43.513Z,54.27
2019-04-25T11:38:43.575Z,53.88
2019-04-25T11:39:45.047Z,53.30
2019-04-25T11:40:46.583Z,52.84
2019-04-25T11:41:46.103Z,51.20
2019-04-25T11:42:45.913Z,51.39
2019-04-25T11:43:45.379Z,51.49
2019-04-25T11:44:45.545Z,49.75
2019-04-25T11:45:43.310Z,50.43
2019-04-25T11:46:44.479Z,49.24
2019-04-25T11:47:45.996Z,49.55
2019-04-25T11:48:45.043Z,48.37
2019-04-25T11:49:45.391Z,48.76
2019-04-25T11:50:48.167Z,48.44
2019-04-25T11:51:44.738Z,48.44
2019-04-25T11:52:43.712Z,48.25
2019-04-25T11:53:45.042Z,48.57
2019-04-25T11:54:44.627Z,50.21
2019-04-25T11:55:43.622Z,49.24
2019-04-25T11:56:45.661Z,49.15
2019-04-25T11:57:47.379Z,47.80
2019-04-25T11:58:45.559Z,48.76
2019-04-25T11:59:45.198Z,48.49
2019-04-25T12:00:43.498Z,49.75
2019-04-25T12:01:45.377Z,49.07
2019-04-25T12:02:43.098Z,48.49
2019-04-25T12:03:46.248Z,47.53
2019-04-25T12:04:45.491Z,46.75
2019-04-25T12:05:45.449Z,46.85
2019-04-25T12:06:45.538Z,45.69
2019-04-25T12:07:44.507Z,45.01
2019-04-25T12:08:44.085Z,46.95
2019-04-25T12:09:45.460Z,46.97
2019-04-25T12:10:45.410Z,46.75
2019-04-25T12:11:44.575Z,46.58
2019-04-25T12:12:43.315Z,44.94
2019-04-25T12:13:44.784Z,45.72
2019-04-25T12:14:44.194Z,45.74
2019-04-25T12:15:43.407Z,44.09
2019-04-25T12:16:46.111Z,45.45
2019-04-25T12:17:42.527Z,45.64
2019-04-25T12:18:45.207Z,44.87
2019-04-25T12:19:42.475Z,44.79
2019-04-25T12:20:44.112Z,45.57
2019-04-25T12:21:42.428Z,43.99
2019-04-25T12:22:44.510Z,43.51
2019-04-25T12:23:45.034Z,44.09
2019-04-25T12:24:44.506Z,43.51
2019-04-25T12:25:42.333Z,44.89
2019-04-25T12:26:45.110Z,45.59
2019-04-25T12:27:42.283Z,43.95
2019-04-25T12:28:42.251Z,44.84
2019-04-25T12:29:43.907Z,42.97
2019-04-25T12:30:43.714Z,42.59
2019-04-25T12:31:42.178Z,42.97
2019-04-25T12:32:42.157Z,44.35
2019-04-25T12:33:43.391Z,44.84
2019-04-25T12:34:42.116Z,43.70
2019-04-25T12:35:43.554Z,42.14
2019-04-25T12:36:42.081Z,41.56
2019-04-25T12:37:42.041Z,41.47
2019-04-25T12:38:42.019Z,42.05
2019-04-25T12:39:41.998Z,42.14
2019-04-25T12:40:43.438Z,42.92
2019-04-25T12:41:41.946Z,42.17
2019-04-25T12:42:41.919Z,41.56
2019-04-25T12:43:41.902Z,40.89
2019-04-25T12:44:43.471Z,41.76
2019-04-25T12:45:43.410Z,42.55
2019-04-25T12:46:43.511Z,41.88
2019-04-25T12:47:41.803Z,43.35
2019-04-25T12:48:43.202Z,43.04
2019-04-25T12:49:43.698Z,43.43
2019-04-25T12:50:41.738Z,43.52
2019-04-25T12:51:41.727Z,42.26